Flight Track Log - Related Links

Times and Time Zones

All times are in EDT time to prevent confusion due to time zone crossing. See the N319TB flight status page for this flight to view local times or setup timezone preferences in your user account.


Time Position Orientation Groundspeed Altitude Reporting Facility
EDT Latitude Longitude Course Direction KTS MPH feet Rate Location/Type
Sun 11:24:36 AM 40.7000 -73.4167 180° South 142 163 1,300  Level New York TRACON
Sun 11:25:36 AM 40.6500 -73.4167 180° South 177 204 1,900 400 Climbing New York TRACON
Sun 11:26:36 AM 40.6500 -73.4833 270° West 197 227 2,100 900 Climbing New York TRACON
Sun 11:27:36 AM 40.6333 -73.5500 252° West 154 177 3,700 1,500 Climbing New York TRACON
Sun 11:28:36 AM 40.6500 -73.6000 294° West 163 188 5,100 1,750 Climbing New York TRACON
Sun 11:29:36 AM 40.6667 -73.6333 303° West 133 153 7,200 1,900 Climbing New York TRACON
Sun 11:30:36 AM 40.7000 -73.6833 311° West 138 159 8,900 1,619 Climbing New York TRACON
Sun 11:31:42 AM 40.7167 -73.7167 303° West 143 165 10,600 1,000 Climbing New York TRACON
Sun 11:32:42 AM 40.6833 -73.7500 217° Southwest 174 200 11,000 200 Climbing New York TRACON
Sun 11:33:42 AM 40.6667 -73.8000 246° West 212 244 11,000  Level New York TRACON
Sun 11:34:42 AM 40.6000 -73.8833 224° Southwest 204 235 11,000 -48 Level New York TRACON
Sun 11:35:48 AM 40.5667 -73.9500 237° Southwest 217 250 10,900  Descending New York TRACON
Sun 11:38:02 AM 40.5044 -74.0928 240° Southwest 223 257 11,000 742 Climbing New York Center
Sun 11:39:02 AM 40.4839 -74.1572 247° West 193 222 13,300 1,475 Climbing New York Center
Sun 11:40:04 AM 40.4722 -74.2031 252° West 164 189 14,000 857 Climbing New York Center
Sun 11:41:01 AM 40.4472 -74.2728 245° Southwest 185 213 15,000 1,322 Climbing New York Center
Sun 11:42:02 AM 40.4333 -74.3183 248° West 166 191 16,600 1,438 Climbing New York Center
Sun 11:43:02 AM 40.4189 -74.3775 252° West 156 180 17,900 1,150 Climbing New York Center
Sun 11:44:02 AM 40.4092 -74.4233 254° West 149 171 18,900 1,091 Climbing New York Center
Sun 11:45:03 AM 40.3867 -74.4794 242° Southwest 149 171 20,100 1,059 Climbing New York Center
Sun 11:46:01 AM 40.3764 -74.5361 257° West 154 177 21,000 1,059 Climbing New York Center
Sun 11:47:02 AM 40.3603 -74.5897 248° West 154 177 22,200 1,091 Climbing New York Center
Sun 11:48:02 AM 40.3436 -74.6486 250° West 166 191 23,200 893 Climbing New York Center
Sun 11:49:03 AM 40.3269 -74.7103 250° West 166 191 24,000 397 Climbing New York Center
Sun 11:50:03 AM 40.3081 -74.7772 250° West 178 205 24,000  Level New York Center
Sun 11:51:04 AM 40.2847 -74.8550 249° West 209 241 24,000  Level New York Center
Sun 11:52:01 AM 40.2631 -74.9325 250° West 236 272 24,000  Level New York Center
Sun 11:53:01 AM 40.2394 -75.0128 249° West 241 277 24,000  Level New York Center
Sun 11:54:02 AM 40.2178 -75.0956 251° West 246 283 24,000  Level New York Center
Sun 11:55:02 AM 40.1917 -75.1783 248° West 246 283 24,000  Level New York Center
Sun 11:56:04 AM 40.1678 -75.2608 249° West 246 283 24,000 303 Level New York Center
Sun 11:57:01 AM 40.1439 -75.3408 249° West 246 283 24,600 923 Climbing New York Center
Sun 11:58:01 AM 40.1122 -75.4011 236° Southwest 228 262 25,800 694 Climbing New York Center
Sun 11:59:02 AM 40.0625 -75.4467 215° Southwest 217 250 26,000 98 Climbing New York Center
Sun 12:00:04 PM 40.0164 -75.5058 225° Southwest 222 255 26,000  Level New York Center
Sun 12:01:02 PM 39.9742 -75.5708 230° Southwest 233 268 26,000  Level New York Center
Sun 12:03:07 PM 39.8822 -75.7186 231° Southwest 242 278 26,000  Level Washington Center
Sun 12:04:08 PM 39.8364 -75.7861 229° Southwest 247 284 26,000  Level Washington Center
Sun 12:05:09 PM 39.7967 -75.8561 234° Southwest 247 284 26,000  Level Washington Center
Sun 12:06:09 PM 39.7569 -75.9261 234° Southwest 247 284 26,000  Level Washington Center
Sun 12:07:08 PM 39.7131 -75.9933 230° Southwest 247 284 26,000  Level Washington Center
Sun 12:08:08 PM 39.6689 -76.0606 230° Southwest 247 284 26,000  Level Washington Center
Sun 12:09:09 PM 39.6292 -76.1303 234° Southwest 252 290 26,000  Level Washington Center
Sun 12:10:07 PM 39.5872 -76.1947 230° Southwest 252 290 26,000  Level Washington Center
Sun 12:11:07 PM 39.5450 -76.2644 232° Southwest 252 290 26,000  Level Washington Center
Sun 12:12:08 PM 39.5031 -76.3311 231° Southwest 252 290 26,000  Level Washington Center
Sun 12:13:08 PM 39.4589 -76.3978 229° Southwest 252 290 26,000  Level Washington Center
Sun 12:14:09 PM 39.4167 -76.4647 231° Southwest 252 290 26,000  Level Washington Center
Sun 12:15:09 PM 39.3703 -76.5339 229° Southwest 257 296 26,000  Level Washington Center
Sun 12:16:07 PM 39.3281 -76.6003 231° Southwest 252 290 26,000  Level Washington Center
Sun 12:17:07 PM 39.2836 -76.6667 229° Southwest 252 290 26,000  Level Washington Center
Sun 12:18:08 PM 39.2436 -76.7333 232° Southwest 252 290 26,000  Level Washington Center
Sun 12:19:09 PM 39.1992 -76.7994 229° Southwest 252 290 26,000  Level Washington Center
Sun 12:20:09 PM 39.1567 -76.8658 230° Southwest 252 290 26,000  Level Washington Center
Sun 12:21:06 PM 39.1144 -76.9319 231° Southwest 252 290 26,000  Level Washington Center
Sun 12:22:07 PM 39.0719 -76.9981 230° Southwest 252 290 26,000  Level Washington Center
Sun 12:23:08 PM 39.0253 -77.0583 225° Southwest 252 290 26,000  Level Washington Center
Sun 12:24:09 PM 38.9725 -77.1136 219° Southwest 252 290 26,000  Level Washington Center
Sun 12:25:09 PM 38.9217 -77.1739 223° Southwest 247 284 26,000  Level Washington Center
Sun 12:26:07 PM 38.8794 -77.2183 219° Southwest 247 284 26,000  Level Washington Center
Sun 12:27:08 PM 38.8244 -77.2808 222° Southwest 247 284 26,000  Level Washington Center
Sun 12:28:08 PM 38.7714 -77.3358 219° Southwest 247 284 26,000  Level Washington Center
Sun 12:29:07 PM 38.7206 -77.3931 221° Southwest 242 278 26,000  Level Washington Center
Sun 12:30:07 PM 38.6697 -77.4503 221° Southwest 242 278 26,000  Level Washington Center
Sun 12:31:07 PM 38.6167 -77.5075 220° Southwest 242 278 26,000  Level Washington Center
Sun 12:32:08 PM 38.5636 -77.5644 220° Southwest 242 278 26,000  Level Washington Center
Sun 12:33:09 PM 38.5106 -77.6214 220° Southwest 242 278 26,000  Level Washington Center
Sun 12:34:09 PM 38.4575 -77.6783 220° Southwest 242 278 26,000  Level Washington Center
Sun 12:35:07 PM 38.4083 -77.7406 225° Southwest 242 278 26,000  Level Washington Center
Sun 12:36:07 PM 38.3636 -77.8028 227° Southwest 242 278 26,000  Level Washington Center
Sun 12:37:08 PM 38.3164 -77.8650 226° Southwest 242 278 26,000  Level Washington Center
Sun 12:38:08 PM 38.2714 -77.9269 227° Southwest 242 278 26,000  Level Washington Center
Sun 12:39:09 PM 38.2244 -77.9864 225° Southwest 242 278 26,000  Level Washington Center
Sun 12:40:09 PM 38.1814 -78.0483 229° Southwest 242 278 26,000  Level Washington Center
Sun 12:41:09 PM 38.1344 -78.1103 226° Southwest 242 278 26,000  Level Washington Center
Sun 12:42:07 PM 38.0872 -78.1692 224° Southwest 242 278 26,000  Level Washington Center
Sun 12:43:08 PM 38.0400 -78.2308 226° Southwest 242 278 26,000  Level Washington Center
Sun 12:44:08 PM 37.9906 -78.2978 227° Southwest 237 273 26,000 -50 Level Washington Center
Sun 12:45:09 PM 37.9475 -78.3514 224° Southwest 237 273 25,900 -248 Descending Washington Center
Sun 12:46:09 PM 37.9003 -78.4156 227° Southwest 243 280 25,500 -407 Descending Washington Center
Sun 12:47:07 PM 37.8486 -78.4819 225° Southwest 248 285 25,100 -407 Descending Washington Center
Sun 12:48:07 PM 37.7969 -78.5483 225° Southwest 258 297 24,700 -446 Descending Washington Center
Sun 12:49:08 PM 37.7386 -78.6222 225° Southwest 268 308 24,200 -446 Descending Washington Center
Sun 12:50:08 PM 37.6869 -78.6911 227° Southwest 268 308 23,800 -397 Descending Washington Center
Sun 12:51:09 PM 37.6353 -78.7544 224° Southwest 268 308 23,400 -403 Descending Washington Center
Sun 12:52:07 PM 37.5875 -78.8233 229° Southwest 268 308 23,000 -403 Descending Washington Center
Sun 12:53:08 PM 37.5419 -78.8842 227° Southwest 268 308 22,600 -397 Descending Washington Center
Sun 12:54:08 PM 37.4919 -78.9553 228° Southwest 268 308 22,200 -298 Descending Washington Center
Sun 12:55:09 PM 37.4442 -79.0211 228° Southwest 268 308 22,000 -101 Descending Washington Center
Sun 12:56:07 PM 37.3925 -79.0789 222° Southwest 263 303 22,000  Level Washington Center
Sun 12:57:08 PM 37.3244 -79.1256 209° Southwest 258 297 22,000  Level Washington Center
Sun 12:58:08 PM 37.2606 -79.1669 207° Southwest 258 297 22,000  Level Washington Center
Sun 12:59:08 PM 37.2008 -79.2111 211° Southwest 258 297 22,000 -149 Level Washington Center
Sun 01:00:09 PM 37.1369 -79.2525 207° Southwest 258 297 21,700 -353 Descending Washington Center
Sun 01:01:07 PM 37.0794 -79.2914 208° Southwest 263 303 21,300 -508 Descending Washington Center
Sun 01:02:07 PM 37.0114 -79.3375 208° Southwest 269 310 20,700 -694 Descending Washington Center
Sun 01:03:08 PM 36.9475 -79.3811 209° Southwest 275 316 19,900 -843 Descending Washington Center
Sun 01:04:08 PM 36.8792 -79.4269 208° Southwest 275 316 19,000 -950 Descending Washington Center
Sun 01:05:08 PM 36.8067 -79.4753 208° Southwest 275 316 18,000 -695 Descending Washington Center
Sun 01:07:00 PM 36.6970 -79.5338 203° Southwest  Level FlightAware Approximate
Sun 01:14:00 PM 36.3028 -79.7974 207° Southwest  Level FlightAware Approximate
Sun 01:15:00 PM 36.2459 -79.8333 207° Southwest  Level FlightAware Approximate
Sun 01:16:00 PM 36.1889 -79.8691 207° Southwest  Level FlightAware Approximate
Sun 01:17:00 PM 36.1319 -79.9049 207° Southwest  Level FlightAware Approximate
Sun 01:18:00 PM 36.0749 -79.9406 207° Southwest  Level FlightAware Approximate
Sun 01:19:00 PM 36.0302 -79.9860 214° Southwest  Level FlightAware Approximate
Sun 01:20:00 PM 35.9772 -80.0302 214° Southwest  Level FlightAware Approximate
Sun 01:20:15 PM 35.9061 -80.1239 219° Southwest 230 265 7,800  Level Atlanta Center
Sun 01:21:00 PM 35.9248 -80.0752 219° Southwest  Level FlightAware Approximate
Sun 01:21:04 PM 35.8550 -80.1597 210° Southwest 233 268 6,200  Level Atlanta Center
Sun 01:22:00 PM 35.8752 -80.1249 219° Southwest  Level FlightAware Approximate
Sun 01:22:05 PM 35.8022 -80.2058 215° Southwest 226 260 5,300  Level Atlanta Center
Sun 01:23:00 PM 35.8255 -80.1745 219° Southwest  Level FlightAware Approximate
Sun 01:23:07 PM 35.7642 -80.2486 222° Southwest 189 217 4,800  Level Atlanta Center
Sun 01:24:00 PM 35.7759 -80.2242 219° Southwest  Level FlightAware Approximate
Sun 01:24:08 PM 35.7214 -80.2889 217° Southwest 187 215 4,300  Level Atlanta Center
Sun 01:25:00 PM 35.7263 -80.2738 219° Southwest  Level FlightAware Approximate
Sun 01:25:09 PM 35.6875 -80.3392 230° Southwest 182 209 4,000  Level Atlanta Center
Sun 01:26:10 PM 35.6578 -80.3864 232° Southwest 170 196 4,000  Level Atlanta Center
Sun 01:27:12 PM 35.6361 -80.4386 243° Southwest 163 188 4,000 -49 Level Atlanta Center
Sun 01:28:12 PM 35.6147 -80.4828 239° Southwest 159 183 3,900 -443 Descending Atlanta Center
Sun 01:29:14 PM 35.5869 -80.5378 238° Southwest 173 199 3,100 -439 Descending Atlanta Center
Sun 01:30:15 PM 35.5611 -80.5847 236° Southwest 170 196 3,000 -49 Descending Atlanta Center
Sun 01:31:16 PM 35.5372 -80.6267 235° Southwest 152 175 3,000  Level Atlanta Center
Sun 01:32:17 PM 35.5136 -80.6733 238° Southwest 145 167 3,000  Level Atlanta Center

Login

Don't have an account? Register now (free) for customized features, flight alerts, and more!